sensor_id;sensor_type;location;lat;lon;timestamp;P1;durP1;ratioP1;P2;durP2;ratioP2
20369;SDS011;10344;47.592;9.600;2024-01-25T00:02:23;0.60;;;0.60;;
20369;SDS011;10344;47.592;9.600;2024-01-25T00:04:49;0.40;;;0.40;;
20369;SDS011;10344;47.592;9.600;2024-01-25T00:07:14;0.60;;;0.60;;
20369;SDS011;10344;47.592;9.600;2024-01-25T00:09:40;0.80;;;0.50;;
20369;SDS011;10344;47.592;9.600;2024-01-25T00:12:06;1.42;;;0.50;;
20369;SDS011;10344;47.592;9.600;2024-01-25T00:14:31;0.50;;;0.50;;
20369;SDS011;10344;47.592;9.600;2024-01-25T00:16:57;0.60;;;0.60;;
20369;SDS011;10344;47.592;9.600;2024-01-25T00:19:22;0.70;;;0.47;;
20369;SDS011;10344;47.592;9.600;2024-01-25T00:21:48;0.90;;;0.60;;
20369;SDS011;10344;47.592;9.600;2024-01-25T00:24:14;1.00;;;0.60;;
20369;SDS011;10344;47.592;9.600;2024-01-25T00:26:39;0.40;;;0.40;;
20369;SDS011;10344;47.592;9.600;2024-01-25T00:29:05;1.20;;;0.40;;
20369;SDS011;10344;47.592;9.600;2024-01-25T00:31:31;0.60;;;0.60;;
20369;SDS011;10344;47.592;9.600;2024-01-25T00:33:58;0.70;;;0.70;;
20369;SDS011;10344;47.592;9.600;2024-01-25T00:36:28;0.68;;;0.47;;
20369;SDS011;10344;47.592;9.600;2024-01-25T00:38:54;0.63;;;0.60;;
20369;SDS011;10344;47.592;9.600;2024-01-25T00:41:19;0.50;;;0.50;;
20369;SDS011;10344;47.592;9.600;2024-01-25T00:43:46;0.70;;;0.52;;
20369;SDS011;10344;47.592;9.600;2024-01-25T00:46:14;0.60;;;0.60;;
20369;SDS011;10344;47.592;9.600;2024-01-25T00:48:40;0.77;;;0.57;;
20369;SDS011;10344;47.592;9.600;2024-01-25T00:51:07;0.80;;;0.63;;
20369;SDS011;10344;47.592;9.600;2024-01-25T00:53:36;0.70;;;0.70;;
20369;SDS011;10344;47.592;9.600;2024-01-25T00:56:02;0.50;;;0.50;;
20369;SDS011;10344;47.592;9.600;2024-01-25T00:58:28;0.88;;;0.50;;
20369;SDS011;10344;47.592;9.600;2024-01-25T01:00:54;0.65;;;0.65;;
20369;SDS011;10344;47.592;9.600;2024-01-25T01:03:20;0.80;;;0.60;;
20369;SDS011;10344;47.592;9.600;2024-01-25T01:05:46;2.00;;;0.60;;
20369;SDS011;10344;47.592;9.600;2024-01-25T01:08:14;1.10;;;0.70;;
20369;SDS011;10344;47.592;9.600;2024-01-25T01:10:40;1.25;;;0.47;;
20369;SDS011;10344;47.592;9.600;2024-01-25T01:13:06;0.88;;;0.40;;
20369;SDS011;10344;47.592;9.600;2024-01-25T01:15:31;0.80;;;0.65;;
20369;SDS011;10344;47.592;9.600;2024-01-25T01:17:59;0.85;;;0.70;;
20369;SDS011;10344;47.592;9.600;2024-01-25T01:20:25;1.47;;;0.80;;
20369;SDS011;10344;47.592;9.600;2024-01-25T01:22:51;1.00;;;0.70;;
20369;SDS011;10344;47.592;9.600;2024-01-25T01:25:17;0.50;;;0.50;;
20369;SDS011;10344;47.592;9.600;2024-01-25T01:27:43;0.70;;;0.60;;
20369;SDS011;10344;47.592;9.600;2024-01-25T01:30:08;0.60;;;0.60;;
20369;SDS011;10344;47.592;9.600;2024-01-25T01:32:34;0.70;;;0.60;;
20369;SDS011;10344;47.592;9.600;2024-01-25T01:35:00;1.55;;;0.80;;
20369;SDS011;10344;47.592;9.600;2024-01-25T01:37:26;1.90;;;1.50;;
20369;SDS011;10344;47.592;9.600;2024-01-25T01:39:51;2.55;;;1.30;;
20369;SDS011;10344;47.592;9.600;2024-01-25T01:42:17;1.40;;;1.00;;
20369;SDS011;10344;47.592;9.600;2024-01-25T01:44:43;2.00;;;1.02;;
20369;SDS011;10344;47.592;9.600;2024-01-25T01:47:09;2.00;;;1.13;;
20369;SDS011;10344;47.592;9.600;2024-01-25T01:49:34;1.90;;;1.48;;
20369;SDS011;10344;47.592;9.600;2024-01-25T01:52:01;3.13;;;1.50;;
20369;SDS011;10344;47.592;9.600;2024-01-25T01:54:27;3.13;;;2.13;;
20369;SDS011;10344;47.592;9.600;2024-01-25T01:56:55;2.55;;;1.80;;
20369;SDS011;10344;47.592;9.600;2024-01-25T01:59:21;2.80;;;1.50;;
20369;SDS011;10344;47.592;9.600;2024-01-25T02:01:46;2.17;;;1.45;;
20369;SDS011;10344;47.592;9.600;2024-01-25T02:04:12;2.72;;;1.42;;
20369;SDS011;10344;47.592;9.600;2024-01-25T02:06:40;1.85;;;1.05;;
20369;SDS011;10344;47.592;9.600;2024-01-25T02:09:08;1.17;;;0.82;;
20369;SDS011;10344;47.592;9.600;2024-01-25T02:11:34;1.88;;;1.10;;
20369;SDS011;10344;47.592;9.600;2024-01-25T02:14:02;2.78;;;1.00;;
20369;SDS011;10344;47.592;9.600;2024-01-25T02:16:28;1.35;;;0.95;;
20369;SDS011;10344;47.592;9.600;2024-01-25T02:18:54;1.30;;;1.00;;
20369;SDS011;10344;47.592;9.600;2024-01-25T02:21:22;1.73;;;1.00;;
20369;SDS011;10344;47.592;9.600;2024-01-25T02:23:48;2.60;;;0.88;;
20369;SDS011;10344;47.592;9.600;2024-01-25T02:26:14;1.95;;;1.00;;
20369;SDS011;10344;47.592;9.600;2024-01-25T02:28:40;1.52;;;0.90;;
20369;SDS011;10344;47.592;9.600;2024-01-25T02:31:05;0.80;;;0.80;;
20369;SDS011;10344;47.592;9.600;2024-01-25T02:33:33;1.97;;;0.97;;
20369;SDS011;10344;47.592;9.600;2024-01-25T02:35:59;1.23;;;0.85;;
20369;SDS011;10344;47.592;9.600;2024-01-25T02:38:24;0.77;;;0.70;;
20369;SDS011;10344;47.592;9.600;2024-01-25T02:40:50;1.00;;;0.82;;
20369;SDS011;10344;47.592;9.600;2024-01-25T02:43:18;3.28;;;1.30;;
20369;SDS011;10344;47.592;9.600;2024-01-25T02:45:44;1.90;;;0.90;;
20369;SDS011;10344;47.592;9.600;2024-01-25T02:48:10;2.60;;;0.80;;
20369;SDS011;10344;47.592;9.600;2024-01-25T02:50:35;2.63;;;0.87;;
20369;SDS011;10344;47.592;9.600;2024-01-25T02:53:01;1.70;;;1.07;;
20369;SDS011;10344;47.592;9.600;2024-01-25T02:55:27;1.75;;;1.17;;
20369;SDS011;10344;47.592;9.600;2024-01-25T02:57:53;1.40;;;0.80;;
20369;SDS011;10344;47.592;9.600;2024-01-25T03:00:18;1.13;;;0.88;;
20369;SDS011;10344;47.592;9.600;2024-01-25T03:02:44;1.77;;;1.10;;
20369;SDS011;10344;47.592;9.600;2024-01-25T03:05:09;1.50;;;1.00;;
20369;SDS011;10344;47.592;9.600;2024-01-25T03:07:35;1.53;;;1.10;;
20369;SDS011;10344;47.592;9.600;2024-01-25T03:10:01;2.10;;;1.00;;
20369;SDS011;10344;47.592;9.600;2024-01-25T03:12:26;2.22;;;1.00;;
20369;SDS011;10344;47.592;9.600;2024-01-25T03:14:52;1.40;;;0.85;;
20369;SDS011;10344;47.592;9.600;2024-01-25T03:17:17;1.52;;;0.75;;
20369;SDS011;10344;47.592;9.600;2024-01-25T03:19:43;1.23;;;0.95;;
20369;SDS011;10344;47.592;9.600;2024-01-25T03:22:12;1.33;;;1.08;;
20369;SDS011;10344;47.592;9.600;2024-01-25T03:24:38;2.38;;;0.90;;
20369;SDS011;10344;47.592;9.600;2024-01-25T03:27:05;1.42;;;1.15;;
20369;SDS011;10344;47.592;9.600;2024-01-25T03:29:38;1.33;;;1.20;;
20369;SDS011;10344;47.592;9.600;2024-01-25T03:32:07;1.58;;;1.30;;
20369;SDS011;10344;47.592;9.600;2024-01-25T03:34:33;0.95;;;0.90;;
20369;SDS011;10344;47.592;9.600;2024-01-25T03:36:59;1.75;;;1.30;;
20369;SDS011;10344;47.592;9.600;2024-01-25T03:39:27;1.30;;;1.20;;
20369;SDS011;10344;47.592;9.600;2024-01-25T03:41:53;1.13;;;1.02;;
20369;SDS011;10344;47.592;9.600;2024-01-25T03:44:19;1.60;;;1.10;;
20369;SDS011;10344;47.592;9.600;2024-01-25T03:46:44;1.25;;;1.15;;
20369;SDS011;10344;47.592;9.600;2024-01-25T03:49:15;1.70;;;1.60;;
20369;SDS011;10344;47.592;9.600;2024-01-25T03:51:41;1.70;;;1.60;;
20369;SDS011;10344;47.592;9.600;2024-01-25T03:54:07;1.93;;;1.50;;
20369;SDS011;10344;47.592;9.600;2024-01-25T03:56:33;2.03;;;1.40;;
20369;SDS011;10344;47.592;9.600;2024-01-25T03:58:58;1.50;;;1.20;;
20369;SDS011;10344;47.592;9.600;2024-01-25T04:01:24;2.28;;;1.40;;
20369;SDS011;10344;47.592;9.600;2024-01-25T04:03:50;2.45;;;1.52;;
20369;SDS011;10344;47.592;9.600;2024-01-25T04:06:15;1.45;;;1.20;;
20369;SDS011;10344;47.592;9.600;2024-01-25T04:08:41;2.27;;;1.60;;
20369;SDS011;10344;47.592;9.600;2024-01-25T04:11:09;2.30;;;1.60;;
20369;SDS011;10344;47.592;9.600;2024-01-25T04:13:35;2.05;;;1.70;;
20369;SDS011;10344;47.592;9.600;2024-01-25T04:16:00;1.83;;;1.63;;
20369;SDS011;10344;47.592;9.600;2024-01-25T04:18:26;2.13;;;1.60;;
20369;SDS011;10344;47.592;9.600;2024-01-25T04:20:54;3.10;;;1.50;;
20369;SDS011;10344;47.592;9.600;2024-01-25T04:23:19;1.63;;;1.50;;
20369;SDS011;10344;47.592;9.600;2024-01-25T04:25:45;2.83;;;2.20;;
20369;SDS011;10344;47.592;9.600;2024-01-25T04:28:11;2.47;;;2.03;;
20369;SDS011;10344;47.592;9.600;2024-01-25T04:30:38;3.03;;;2.20;;
20369;SDS011;10344;47.592;9.600;2024-01-25T04:33:04;3.23;;;2.10;;
20369;SDS011;10344;47.592;9.600;2024-01-25T04:35:30;2.83;;;2.10;;
20369;SDS011;10344;47.592;9.600;2024-01-25T04:37:56;2.50;;;1.90;;
20369;SDS011;10344;47.592;9.600;2024-01-25T04:40:22;2.10;;;1.88;;
20369;SDS011;10344;47.592;9.600;2024-01-25T04:42:50;2.45;;;1.92;;
20369;SDS011;10344;47.592;9.600;2024-01-25T04:45:15;2.55;;;1.90;;
20369;SDS011;10344;47.592;9.600;2024-01-25T04:47:41;2.03;;;1.70;;
20369;SDS011;10344;47.592;9.600;2024-01-25T04:50:06;2.23;;;1.40;;
20369;SDS011;10344;47.592;9.600;2024-01-25T04:52:32;1.58;;;1.48;;
20369;SDS011;10344;47.592;9.600;2024-01-25T04:54:58;1.70;;;1.40;;
20369;SDS011;10344;47.592;9.600;2024-01-25T04:57:26;1.92;;;1.50;;
20369;SDS011;10344;47.592;9.600;2024-01-25T04:59:51;1.10;;;1.00;;
20369;SDS011;10344;47.592;9.600;2024-01-25T05:02:19;1.13;;;1.10;;
20369;SDS011;10344;47.592;9.600;2024-01-25T05:04:45;1.30;;;1.20;;
20369;SDS011;10344;47.592;9.600;2024-01-25T05:07:13;1.23;;;1.13;;
20369;SDS011;10344;47.592;9.600;2024-01-25T05:09:38;1.77;;;1.20;;
20369;SDS011;10344;47.592;9.600;2024-01-25T05:12:06;1.55;;;1.30;;
20369;SDS011;10344;47.592;9.600;2024-01-25T05:14:34;2.13;;;1.10;;
20369;SDS011;10344;47.592;9.600;2024-01-25T05:17:00;1.20;;;1.10;;
20369;SDS011;10344;47.592;9.600;2024-01-25T05:19:27;2.85;;;1.20;;
20369;SDS011;10344;47.592;9.600;2024-01-25T05:21:55;3.65;;;1.33;;
20369;SDS011;10344;47.592;9.600;2024-01-25T05:24:21;2.73;;;1.17;;
20369;SDS011;10344;47.592;9.600;2024-01-25T05:26:47;2.40;;;1.00;;
20369;SDS011;10344;47.592;9.600;2024-01-25T05:29:12;2.28;;;1.00;;
20369;SDS011;10344;47.592;9.600;2024-01-25T05:31:38;3.22;;;1.25;;
20369;SDS011;10344;47.592;9.600;2024-01-25T05:34:04;2.08;;;1.00;;
20369;SDS011;10344;47.592;9.600;2024-01-25T05:36:29;2.23;;;1.03;;
20369;SDS011;10344;47.592;9.600;2024-01-25T05:38:55;2.63;;;1.10;;
20369;SDS011;10344;47.592;9.600;2024-01-25T05:41:20;2.40;;;1.10;;
20369;SDS011;10344;47.592;9.600;2024-01-25T05:43:46;2.27;;;1.20;;
20369;SDS011;10344;47.592;9.600;2024-01-25T05:46:12;1.80;;;0.90;;
20369;SDS011;10344;47.592;9.600;2024-01-25T05:48:38;3.07;;;1.20;;
20369;SDS011;10344;47.592;9.600;2024-01-25T05:51:04;3.38;;;1.40;;
20369;SDS011;10344;47.592;9.600;2024-01-25T05:53:30;1.83;;;1.00;;
20369;SDS011;10344;47.592;9.600;2024-01-25T05:55:55;2.03;;;1.13;;
20369;SDS011;10344;47.592;9.600;2024-01-25T05:58:23;1.90;;;1.10;;
20369;SDS011;10344;47.592;9.600;2024-01-25T06:00:50;1.43;;;1.00;;
20369;SDS011;10344;47.592;9.600;2024-01-25T06:03:15;2.85;;;1.38;;
20369;SDS011;10344;47.592;9.600;2024-01-25T06:05:41;1.90;;;1.10;;
20369;SDS011;10344;47.592;9.600;2024-01-25T06:08:07;2.20;;;1.20;;
20369;SDS011;10344;47.592;9.600;2024-01-25T06:10:32;1.83;;;1.40;;
20369;SDS011;10344;47.592;9.600;2024-01-25T06:13:00;3.45;;;1.25;;
20369;SDS011;10344;47.592;9.600;2024-01-25T06:15:26;1.73;;;1.23;;
20369;SDS011;10344;47.592;9.600;2024-01-25T06:17:51;2.70;;;1.60;;
20369;SDS011;10344;47.592;9.600;2024-01-25T06:20:17;2.57;;;1.30;;
20369;SDS011;10344;47.592;9.600;2024-01-25T06:22:43;2.27;;;1.30;;
20369;SDS011;10344;47.592;9.600;2024-01-25T06:25:11;2.72;;;1.30;;
20369;SDS011;10344;47.592;9.600;2024-01-25T06:27:36;2.47;;;1.30;;
20369;SDS011;10344;47.592;9.600;2024-01-25T06:30:02;2.47;;;1.57;;
20369;SDS011;10344;47.592;9.600;2024-01-25T06:32:28;1.40;;;1.15;;
20369;SDS011;10344;47.592;9.600;2024-01-25T06:34:53;1.23;;;1.10;;
20369;SDS011;10344;47.592;9.600;2024-01-25T06:37:19;3.40;;;1.30;;
20369;SDS011;10344;47.592;9.600;2024-01-25T06:39:47;1.50;;;1.20;;
20369;SDS011;10344;47.592;9.600;2024-01-25T06:42:13;1.58;;;1.13;;
20369;SDS011;10344;47.592;9.600;2024-01-25T06:44:39;2.05;;;1.40;;
20369;SDS011;10344;47.592;9.600;2024-01-25T06:47:04;1.90;;;1.42;;
20369;SDS011;10344;47.592;9.600;2024-01-25T06:49:30;3.22;;;1.40;;
20369;SDS011;10344;47.592;9.600;2024-01-25T06:51:56;2.23;;;1.37;;
20369;SDS011;10344;47.592;9.600;2024-01-25T06:54:22;1.97;;;1.80;;
20369;SDS011;10344;47.592;9.600;2024-01-25T06:56:47;2.00;;;1.80;;
20369;SDS011;10344;47.592;9.600;2024-01-25T06:59:16;2.37;;;1.50;;
20369;SDS011;10344;47.592;9.600;2024-01-25T07:01:44;2.42;;;1.90;;
20369;SDS011;10344;47.592;9.600;2024-01-25T07:04:10;2.72;;;1.70;;
20369;SDS011;10344;47.592;9.600;2024-01-25T07:06:35;3.17;;;1.70;;
20369;SDS011;10344;47.592;9.600;2024-01-25T07:09:03;2.00;;;1.50;;
20369;SDS011;10344;47.592;9.600;2024-01-25T07:11:29;1.75;;;1.65;;
20369;SDS011;10344;47.592;9.600;2024-01-25T07:13:55;2.00;;;1.63;;
20369;SDS011;10344;47.592;9.600;2024-01-25T07:16:21;2.00;;;1.80;;
20369;SDS011;10344;47.592;9.600;2024-01-25T07:18:46;1.85;;;1.65;;
20369;SDS011;10344;47.592;9.600;2024-01-25T07:21:12;2.80;;;1.70;;
20369;SDS011;10344;47.592;9.600;2024-01-25T07:23:38;2.20;;;1.90;;
20369;SDS011;10344;47.592;9.600;2024-01-25T07:26:03;4.57;;;2.47;;
20369;SDS011;10344;47.592;9.600;2024-01-25T07:28:30;3.15;;;2.25;;
20369;SDS011;10344;47.592;9.600;2024-01-25T07:30:56;2.90;;;2.10;;
20369;SDS011;10344;47.592;9.600;2024-01-25T07:33:21;3.97;;;2.47;;
20369;SDS011;10344;47.592;9.600;2024-01-25T07:35:47;5.27;;;3.43;;
20369;SDS011;10344;47.592;9.600;2024-01-25T07:38:13;6.50;;;4.07;;
20369;SDS011;10344;47.592;9.600;2024-01-25T07:40:39;5.50;;;2.67;;
20369;SDS011;10344;47.592;9.600;2024-01-25T07:43:05;5.40;;;3.83;;
20369;SDS011;10344;47.592;9.600;2024-01-25T07:45:31;24.37;;;14.57;;
20369;SDS011;10344;47.592;9.600;2024-01-25T07:48:02;17.65;;;10.77;;
20369;SDS011;10344;47.592;9.600;2024-01-25T07:50:28;11.88;;;7.40;;
20369;SDS011;10344;47.592;9.600;2024-01-25T07:52:54;5.93;;;4.40;;
20369;SDS011;10344;47.592;9.600;2024-01-25T07:55:19;4.18;;;3.30;;
20369;SDS011;10344;47.592;9.600;2024-01-25T07:57:45;4.70;;;2.87;;
20369;SDS011;10344;47.592;9.600;2024-01-25T08:00:11;5.40;;;3.60;;
20369;SDS011;10344;47.592;9.600;2024-01-25T08:02:39;7.18;;;5.50;;
20369;SDS011;10344;47.592;9.600;2024-01-25T08:05:06;8.23;;;5.72;;
20369;SDS011;10344;47.592;9.600;2024-01-25T08:07:32;5.78;;;3.03;;
20369;SDS011;10344;47.592;9.600;2024-01-25T08:10:00;4.70;;;2.92;;
20369;SDS011;10344;47.592;9.600;2024-01-25T08:12:26;4.28;;;2.65;;
20369;SDS011;10344;47.592;9.600;2024-01-25T08:14:51;2.90;;;1.90;;
20369;SDS011;10344;47.592;9.600;2024-01-25T08:17:17;4.30;;;2.30;;
20369;SDS011;10344;47.592;9.600;2024-01-25T08:19:43;3.35;;;2.33;;
20369;SDS011;10344;47.592;9.600;2024-01-25T08:22:09;3.20;;;2.30;;
20369;SDS011;10344;47.592;9.600;2024-01-25T08:24:35;3.35;;;2.40;;
20369;SDS011;10344;47.592;9.600;2024-01-25T08:27:01;4.15;;;2.30;;
20369;SDS011;10344;47.592;9.600;2024-01-25T08:29:26;2.77;;;1.70;;
20369;SDS011;10344;47.592;9.600;2024-01-25T08:31:52;1.80;;;1.50;;
20369;SDS011;10344;47.592;9.600;2024-01-25T08:34:17;1.73;;;1.48;;
20369;SDS011;10344;47.592;9.600;2024-01-25T08:36:43;1.58;;;1.30;;
20369;SDS011;10344;47.592;9.600;2024-01-25T08:39:11;1.73;;;1.33;;
20369;SDS011;10344;47.592;9.600;2024-01-25T08:41:39;2.05;;;1.42;;
20369;SDS011;10344;47.592;9.600;2024-01-25T08:44:07;2.17;;;1.77;;
20369;SDS011;10344;47.592;9.600;2024-01-25T08:46:32;3.60;;;2.10;;
20369;SDS011;10344;47.592;9.600;2024-01-25T08:49:01;4.13;;;2.72;;
20369;SDS011;10344;47.592;9.600;2024-01-25T08:51:33;5.32;;;3.88;;
20369;SDS011;10344;47.592;9.600;2024-01-25T08:53:59;5.22;;;3.85;;
20369;SDS011;10344;47.592;9.600;2024-01-25T08:56:24;5.37;;;3.80;;
20369;SDS011;10344;47.592;9.600;2024-01-25T08:58:50;5.90;;;3.40;;
20369;SDS011;10344;47.592;9.600;2024-01-25T09:01:17;5.60;;;2.97;;
20369;SDS011;10344;47.592;9.600;2024-01-25T09:03:45;3.72;;;2.70;;
20369;SDS011;10344;47.592;9.600;2024-01-25T09:06:11;3.72;;;2.90;;
20369;SDS011;10344;47.592;9.600;2024-01-25T09:08:37;3.65;;;2.35;;
20369;SDS011;10344;47.592;9.600;2024-01-25T09:11:03;2.90;;;2.30;;
20369;SDS011;10344;47.592;9.600;2024-01-25T09:13:29;3.97;;;2.50;;
20369;SDS011;10344;47.592;9.600;2024-01-25T09:15:55;3.20;;;2.40;;
20369;SDS011;10344;47.592;9.600;2024-01-25T09:18:21;2.40;;;2.20;;
20369;SDS011;10344;47.592;9.600;2024-01-25T09:20:46;3.40;;;2.50;;
20369;SDS011;10344;47.592;9.600;2024-01-25T09:23:13;5.68;;;3.10;;
20369;SDS011;10344;47.592;9.600;2024-01-25T09:25:43;7.50;;;4.78;;
20369;SDS011;10344;47.592;9.600;2024-01-25T09:28:10;7.68;;;5.22;;
20369;SDS011;10344;47.592;9.600;2024-01-25T09:30:37;8.07;;;5.57;;
20369;SDS011;10344;47.592;9.600;2024-01-25T09:33:04;6.47;;;4.80;;
20369;SDS011;10344;47.592;9.600;2024-01-25T09:35:33;4.28;;;3.20;;
20369;SDS011;10344;47.592;9.600;2024-01-25T09:37:58;3.10;;;2.50;;
20369;SDS011;10344;47.592;9.600;2024-01-25T09:40:27;2.15;;;1.80;;
20369;SDS011;10344;47.592;9.600;2024-01-25T09:42:54;2.40;;;1.70;;
20369;SDS011;10344;47.592;9.600;2024-01-25T09:45:20;3.20;;;1.60;;
20369;SDS011;10344;47.592;9.600;2024-01-25T09:47:47;3.50;;;1.50;;
20369;SDS011;10344;47.592;9.600;2024-01-25T09:50:13;2.00;;;1.80;;
20369;SDS011;10344;47.592;9.600;2024-01-25T09:52:39;2.10;;;1.90;;
20369;SDS011;10344;47.592;9.600;2024-01-25T09:55:11;2.53;;;1.90;;
20369;SDS011;10344;47.592;9.600;2024-01-25T09:57:43;2.70;;;1.77;;
20369;SDS011;10344;47.592;9.600;2024-01-25T10:00:14;2.58;;;1.85;;
20369;SDS011;10344;47.592;9.600;2024-01-25T10:02:40;2.25;;;2.00;;
20369;SDS011;10344;47.592;9.600;2024-01-25T10:05:06;1.80;;;1.70;;
20369;SDS011;10344;47.592;9.600;2024-01-25T10:07:39;1.75;;;1.60;;
20369;SDS011;10344;47.592;9.600;2024-01-25T10:10:06;2.35;;;1.75;;
20369;SDS011;10344;47.592;9.600;2024-01-25T10:12:32;1.80;;;1.60;;
20369;SDS011;10344;47.592;9.600;2024-01-25T10:14:58;3.08;;;1.73;;
20369;SDS011;10344;47.592;9.600;2024-01-25T10:17:24;3.35;;;1.67;;
20369;SDS011;10344;47.592;9.600;2024-01-25T10:19:52;1.50;;;1.40;;
20369;SDS011;10344;47.592;9.600;2024-01-25T10:22:18;2.25;;;1.35;;
20369;SDS011;10344;47.592;9.600;2024-01-25T10:24:44;2.17;;;1.50;;
20369;SDS011;10344;47.592;9.600;2024-01-25T10:27:10;1.80;;;1.17;;
20369;SDS011;10344;47.592;9.600;2024-01-25T10:29:38;2.63;;;1.55;;
20369;SDS011;10344;47.592;9.600;2024-01-25T10:32:06;2.47;;;1.60;;
20369;SDS011;10344;47.592;9.600;2024-01-25T10:34:34;2.17;;;1.10;;
20369;SDS011;10344;47.592;9.600;2024-01-25T10:37:07;1.20;;;1.10;;
20369;SDS011;10344;47.592;9.600;2024-01-25T10:39:33;1.92;;;1.33;;
20369;SDS011;10344;47.592;9.600;2024-01-25T10:41:59;1.20;;;1.05;;
20369;SDS011;10344;47.592;9.600;2024-01-25T10:44:25;1.90;;;0.98;;
20369;SDS011;10344;47.592;9.600;2024-01-25T10:46:51;2.47;;;1.27;;
20369;SDS011;10344;47.592;9.600;2024-01-25T10:49:19;1.67;;;1.40;;
20369;SDS011;10344;47.592;9.600;2024-01-25T10:51:45;1.40;;;1.30;;
20369;SDS011;10344;47.592;9.600;2024-01-25T10:54:13;1.55;;;1.10;;
20369;SDS011;10344;47.592;9.600;2024-01-25T10:56:43;1.80;;;1.50;;
20369;SDS011;10344;47.592;9.600;2024-01-25T10:59:12;1.48;;;1.38;;
20369;SDS011;10344;47.592;9.600;2024-01-25T11:01:42;1.67;;;1.40;;
20369;SDS011;10344;47.592;9.600;2024-01-25T11:04:15;2.72;;;1.52;;
20369;SDS011;10344;47.592;9.600;2024-01-25T11:06:43;2.00;;;1.60;;
20369;SDS011;10344;47.592;9.600;2024-01-25T11:09:16;2.70;;;1.85;;
20369;SDS011;10344;47.592;9.600;2024-01-25T11:11:46;2.10;;;1.67;;
20369;SDS011;10344;47.592;9.600;2024-01-25T11:14:14;2.47;;;1.50;;
20369;SDS011;10344;47.592;9.600;2024-01-25T11:16:41;1.90;;;1.40;;
20369;SDS011;10344;47.592;9.600;2024-01-25T11:19:15;3.08;;;1.58;;
20369;SDS011;10344;47.592;9.600;2024-01-25T11:24:21;2.03;;;1.52;;
20369;SDS011;10344;47.592;9.600;2024-01-25T11:26:48;2.70;;;1.30;;
20369;SDS011;10344;47.592;9.600;2024-01-25T11:29:14;1.52;;;1.40;;
20369;SDS011;10344;47.592;9.600;2024-01-25T11:31:45;1.20;;;1.10;;
20369;SDS011;10344;47.592;9.600;2024-01-25T11:34:13;2.28;;;1.30;;
20369;SDS011;10344;47.592;9.600;2024-01-25T11:36:42;2.78;;;0.90;;
20369;SDS011;10344;47.592;9.600;2024-01-25T11:39:09;1.50;;;1.05;;
20369;SDS011;10344;47.592;9.600;2024-01-25T11:41:36;0.90;;;0.90;;
20369;SDS011;10344;47.592;9.600;2024-01-25T11:44:02;1.00;;;0.90;;
20369;SDS011;10344;47.592;9.600;2024-01-25T11:46:28;1.20;;;1.10;;
20369;SDS011;10344;47.592;9.600;2024-01-25T11:48:57;0.95;;;0.90;;
20369;SDS011;10344;47.592;9.600;2024-01-25T11:51:26;1.43;;;0.90;;
20369;SDS011;10344;47.592;9.600;2024-01-25T11:53:51;0.75;;;0.70;;
20369;SDS011;10344;47.592;9.600;2024-01-25T11:56:20;1.50;;;1.00;;
20369;SDS011;10344;47.592;9.600;2024-01-25T11:58:50;0.90;;;0.80;;
20369;SDS011;10344;47.592;9.600;2024-01-25T12:01:17;1.40;;;0.93;;
20369;SDS011;10344;47.592;9.600;2024-01-25T12:03:44;0.90;;;0.90;;
20369;SDS011;10344;47.592;9.600;2024-01-25T12:06:10;1.20;;;0.80;;
20369;SDS011;10344;47.592;9.600;2024-01-25T12:08:37;1.30;;;0.77;;
20369;SDS011;10344;47.592;9.600;2024-01-25T12:11:07;0.90;;;0.70;;
20369;SDS011;10344;47.592;9.600;2024-01-25T12:13:34;0.65;;;0.65;;
20369;SDS011;10344;47.592;9.600;2024-01-25T12:16:02;0.80;;;0.68;;
20369;SDS011;10344;47.592;9.600;2024-01-25T12:18:28;0.90;;;0.90;;
20369;SDS011;10344;47.592;9.600;2024-01-25T12:20:55;0.70;;;0.70;;
20369;SDS011;10344;47.592;9.600;2024-01-25T12:23:22;0.77;;;0.55;;
20369;SDS011;10344;47.592;9.600;2024-01-25T12:25:48;0.70;;;0.70;;
20369;SDS011;10344;47.592;9.600;2024-01-25T12:28:14;0.83;;;0.83;;
20369;SDS011;10344;47.592;9.600;2024-01-25T12:30:39;0.60;;;0.60;;
20369;SDS011;10344;47.592;9.600;2024-01-25T12:33:05;1.00;;;0.68;;
20369;SDS011;10344;47.592;9.600;2024-01-25T12:35:30;0.60;;;0.60;;
20369;SDS011;10344;47.592;9.600;2024-01-25T12:37:58;0.65;;;0.50;;
20369;SDS011;10344;47.592;9.600;2024-01-25T12:40:24;0.40;;;0.40;;
20369;SDS011;10344;47.592;9.600;2024-01-25T12:42:49;0.60;;;0.60;;
20369;SDS011;10344;47.592;9.600;2024-01-25T12:45:15;0.50;;;0.50;;
20369;SDS011;10344;47.592;9.600;2024-01-25T12:47:41;0.40;;;0.40;;
20369;SDS011;10344;47.592;9.600;2024-01-25T12:50:09;0.55;;;0.55;;
20369;SDS011;10344;47.592;9.600;2024-01-25T12:52:37;0.73;;;0.70;;
20369;SDS011;10344;47.592;9.600;2024-01-25T12:55:02;0.70;;;0.70;;
20369;SDS011;10344;47.592;9.600;2024-01-25T12:57:31;0.70;;;0.70;;
20369;SDS011;10344;47.592;9.600;2024-01-25T12:59:57;1.00;;;0.60;;
20369;SDS011;10344;47.592;9.600;2024-01-25T13:02:24;0.50;;;0.50;;
20369;SDS011;10344;47.592;9.600;2024-01-25T13:04:49;0.50;;;0.50;;
20369;SDS011;10344;47.592;9.600;2024-01-25T13:07:15;0.60;;;0.60;;
20369;SDS011;10344;47.592;9.600;2024-01-25T13:09:43;0.70;;;0.50;;
20369;SDS011;10344;47.592;9.600;2024-01-25T13:12:11;0.40;;;0.40;;
20369;SDS011;10344;47.592;9.600;2024-01-25T13:14:37;0.97;;;0.87;;
20369;SDS011;10344;47.592;9.600;2024-01-25T13:17:03;0.60;;;0.60;;
20369;SDS011;10344;47.592;9.600;2024-01-25T13:19:29;0.60;;;0.60;;
20369;SDS011;10344;47.592;9.600;2024-01-25T13:21:55;0.50;;;0.50;;
20369;SDS011;10344;47.592;9.600;2024-01-25T13:24:20;0.60;;;0.50;;
20369;SDS011;10344;47.592;9.600;2024-01-25T13:26:48;0.60;;;0.50;;
20369;SDS011;10344;47.592;9.600;2024-01-25T13:29:14;0.70;;;0.70;;
20369;SDS011;10344;47.592;9.600;2024-01-25T13:31:45;0.50;;;0.50;;
20369;SDS011;10344;47.592;9.600;2024-01-25T13:34:13;0.50;;;0.50;;
20369;SDS011;10344;47.592;9.600;2024-01-25T13:36:38;0.60;;;0.60;;
20369;SDS011;10344;47.592;9.600;2024-01-25T13:39:05;1.50;;;0.70;;
20369;SDS011;10344;47.592;9.600;2024-01-25T13:41:35;0.60;;;0.60;;
20369;SDS011;10344;47.592;9.600;2024-01-25T13:44:00;0.90;;;0.70;;
20369;SDS011;10344;47.592;9.600;2024-01-25T13:46:26;1.00;;;0.90;;
20369;SDS011;10344;47.592;9.600;2024-01-25T13:48:51;1.20;;;1.20;;
20369;SDS011;10344;47.592;9.600;2024-01-25T13:51:17;1.20;;;1.00;;
20369;SDS011;10344;47.592;9.600;2024-01-25T13:53:43;1.20;;;1.10;;
20369;SDS011;10344;47.592;9.600;2024-01-25T13:56:09;1.30;;;1.20;;
20369;SDS011;10344;47.592;9.600;2024-01-25T13:58:35;1.30;;;1.20;;
20369;SDS011;10344;47.592;9.600;2024-01-25T14:01:00;1.45;;;1.30;;
20369;SDS011;10344;47.592;9.600;2024-01-25T14:03:26;1.50;;;1.40;;
20369;SDS011;10344;47.592;9.600;2024-01-25T14:05:52;1.30;;;1.17;;
20369;SDS011;10344;47.592;9.600;2024-01-25T14:08:17;1.53;;;1.43;;
20369;SDS011;10344;47.592;9.600;2024-01-25T14:10:46;1.30;;;1.20;;
20369;SDS011;10344;47.592;9.600;2024-01-25T14:13:11;2.30;;;1.90;;
20369;SDS011;10344;47.592;9.600;2024-01-25T14:15:37;1.57;;;1.47;;
20369;SDS011;10344;47.592;9.600;2024-01-25T14:18:05;2.47;;;1.70;;
20369;SDS011;10344;47.592;9.600;2024-01-25T14:20:33;1.90;;;1.70;;
20369;SDS011;10344;47.592;9.600;2024-01-25T14:23:02;2.00;;;1.77;;
20369;SDS011;10344;47.592;9.600;2024-01-25T14:25:30;1.80;;;1.70;;
20369;SDS011;10344;47.592;9.600;2024-01-25T14:27:55;2.70;;;1.65;;
20369;SDS011;10344;47.592;9.600;2024-01-25T14:30:23;1.83;;;1.73;;
20369;SDS011;10344;47.592;9.600;2024-01-25T14:32:49;1.88;;;1.67;;
20369;SDS011;10344;47.592;9.600;2024-01-25T14:35:17;2.00;;;1.60;;
20369;SDS011;10344;47.592;9.600;2024-01-25T14:37:42;1.40;;;1.30;;
20369;SDS011;10344;47.592;9.600;2024-01-25T14:40:08;1.40;;;1.30;;
20369;SDS011;10344;47.592;9.600;2024-01-25T14:42:36;1.40;;;1.30;;
20369;SDS011;10344;47.592;9.600;2024-01-25T14:45:02;1.58;;;1.48;;
20369;SDS011;10344;47.592;9.600;2024-01-25T14:47:28;2.08;;;1.40;;